aviador You're here:

KMYJ Decoded Metar

in
Report Time2017-08-16 19:35:00
UTC Time2017-08-16 19:33:37
Flight Rules mvfr MVFR
WindCalm
Visibility9999 m
Phenomena:Vicinity thunderstorm
Clouds:Broken 028 Hf
Overcast 038 Hf
Expected CloudBase > 800 ft AGL from Temp-Dew spread
Ceiling2,800 ft
Temp25°C
Dew Point23°C (89% RH)
QNH1013 hPa
Raw Report
METAR KMYJ 161935Z AUTO 00000KT 7SM VCTS BKN028 OVC038 25/23 A2990
RMK AO2 LTG DSNT SW=

Extra information for KMYJ:More info

Social comments